Portada
METAR-TAF:

METAR-TAF

Aeroports :

Sanford-Lee County Regional Airport

Sanford, Carolina del Nord, Estats Units d'Amèrica

latitud: 35-34-57N, longitud: 079-06-05W, altitud: 75 m

Observació

L'informe es va fer fa 22 minuts, a les 15:55 UTC
Vent 4 kt del Nord/Nord-Est
Temperatura 6°C
Humitat 87%
Pressió 1023 hPa
Visibilitat: 16.1 km
Cel cobert a una alçada de 5500 ft

METAR: KTTA 151555Z AUTO 02004KT 10SM OVC055 06/04 A3021 RMK AO2 T00580043

Hora: 11:17 (16:17 UTC)


TAF: manca

Observacions i pronòstics meteorològics de més de 4000 aeroports (METAR i TAF).

Les estacions disponibles són els punts grocs i vermells al mapa.

Posi el ratolí al punt desitjat per veure el nom de l'estació.

Feu clic per veure les observacions i els pronòstics meteorològics.

Per canviar el mapa: feu clic els botons verds amb una creu de color negre per apropar; al botó verd amb un guió per allunyar la imatge; o en les fletxes verdes per a mapes adjacents.


METAR-TAF: